sensor_id;sensor_type;location;lat;lon;timestamp;P1;durP1;ratioP1;P2;durP2;ratioP2
75997;SDS011;64685;48.762;44.822;2022-12-10T00:00:06;4.97;;;1.58;;
75997;SDS011;64685;48.762;44.822;2022-12-10T00:02:32;7.28;;;1.60;;
75997;SDS011;64685;48.762;44.822;2022-12-10T00:04:58;5.93;;;2.45;;
75997;SDS011;64685;48.762;44.822;2022-12-10T00:07:23;2.80;;;1.05;;
75997;SDS011;64685;48.762;44.822;2022-12-10T00:09:49;6.65;;;2.08;;
75997;SDS011;64685;48.762;44.822;2022-12-10T00:12:15;4.15;;;1.73;;
75997;SDS011;64685;48.762;44.822;2022-12-10T00:14:41;3.78;;;1.52;;
75997;SDS011;64685;48.762;44.822;2022-12-10T00:17:06;2.10;;;1.17;;
75997;SDS011;64685;48.762;44.822;2022-12-10T00:19:32;5.07;;;1.88;;
75997;SDS011;64685;48.762;44.822;2022-12-10T00:21:58;7.25;;;1.55;;
75997;SDS011;64685;48.762;44.822;2022-12-10T00:24:24;5.88;;;2.20;;
75997;SDS011;64685;48.762;44.822;2022-12-10T00:26:49;3.20;;;1.25;;
75997;SDS011;64685;48.762;44.822;2022-12-10T00:29:15;4.00;;;1.58;;
75997;SDS011;64685;48.762;44.822;2022-12-10T00:31:41;5.38;;;2.30;;
75997;SDS011;64685;48.762;44.822;2022-12-10T00:34:08;2.75;;;1.15;;
75997;SDS011;64685;48.762;44.822;2022-12-10T00:36:36;1.33;;;0.50;;
75997;SDS011;64685;48.762;44.822;2022-12-10T00:39:03;3.65;;;1.23;;
75997;SDS011;64685;48.762;44.822;2022-12-10T00:41:29;4.72;;;1.65;;
75997;SDS011;64685;48.762;44.822;2022-12-10T00:43:55;4.10;;;0.82;;
75997;SDS011;64685;48.762;44.822;2022-12-10T00:46:21;4.40;;;1.00;;
75997;SDS011;64685;48.762;44.822;2022-12-10T00:48:46;2.20;;;0.63;;
75997;SDS011;64685;48.762;44.822;2022-12-10T00:51:19;3.95;;;1.15;;
75997;SDS011;64685;48.762;44.822;2022-12-10T00:53:46;3.50;;;1.08;;
75997;SDS011;64685;48.762;44.822;2022-12-10T00:56:13;6.57;;;1.40;;
75997;SDS011;64685;48.762;44.822;2022-12-10T00:58:39;4.68;;;1.15;;
75997;SDS011;64685;48.762;44.822;2022-12-10T01:03:37;3.17;;;1.58;;
75997;SDS011;64685;48.762;44.822;2022-12-10T01:06:24;5.60;;;1.02;;
75997;SDS011;64685;48.762;44.822;2022-12-10T01:08:51;2.80;;;1.10;;
75997;SDS011;64685;48.762;44.822;2022-12-10T01:11:18;4.55;;;2.72;;
75997;SDS011;64685;48.762;44.822;2022-12-10T01:13:45;4.32;;;1.60;;
75997;SDS011;64685;48.762;44.822;2022-12-10T01:16:12;4.93;;;1.55;;
75997;SDS011;64685;48.762;44.822;2022-12-10T01:18:39;4.00;;;1.17;;
75997;SDS011;64685;48.762;44.822;2022-12-10T01:21:16;7.70;;;2.33;;
75997;SDS011;64685;48.762;44.822;2022-12-10T01:23:44;2.22;;;1.17;;
75997;SDS011;64685;48.762;44.822;2022-12-10T01:26:12;5.63;;;2.22;;
75997;SDS011;64685;48.762;44.822;2022-12-10T01:28:38;5.47;;;1.70;;
75997;SDS011;64685;48.762;44.822;2022-12-10T01:31:08;8.55;;;2.50;;
75997;SDS011;64685;48.762;44.822;2022-12-10T01:33:34;6.47;;;1.85;;
75997;SDS011;64685;48.762;44.822;2022-12-10T01:36:04;4.75;;;1.75;;
75997;SDS011;64685;48.762;44.822;2022-12-10T01:38:30;3.83;;;1.30;;
75997;SDS011;64685;48.762;44.822;2022-12-10T01:40:56;1.15;;;0.22;;
75997;SDS011;64685;48.762;44.822;2022-12-10T01:43:22;4.30;;;1.35;;
75997;SDS011;64685;48.762;44.822;2022-12-10T01:45:48;2.60;;;0.73;;
75997;SDS011;64685;48.762;44.822;2022-12-10T01:48:14;3.90;;;1.25;;
75997;SDS011;64685;48.762;44.822;2022-12-10T01:50:40;6.75;;;1.92;;
75997;SDS011;64685;48.762;44.822;2022-12-10T01:53:05;2.63;;;1.00;;
75997;SDS011;64685;48.762;44.822;2022-12-10T01:55:42;3.42;;;1.27;;
75997;SDS011;64685;48.762;44.822;2022-12-10T01:58:09;6.65;;;1.20;;
75997;SDS011;64685;48.762;44.822;2022-12-10T02:00:35;7.82;;;1.95;;
75997;SDS011;64685;48.762;44.822;2022-12-10T02:03:09;4.15;;;1.38;;
75997;SDS011;64685;48.762;44.822;2022-12-10T02:05:39;4.80;;;2.40;;
75997;SDS011;64685;48.762;44.822;2022-12-10T02:15:41;9.93;;;2.05;;
75997;SDS011;64685;48.762;44.822;2022-12-10T02:18:10;6.05;;;1.77;;
75997;SDS011;64685;48.762;44.822;2022-12-10T02:20:40;11.23;;;2.28;;
75997;SDS011;64685;48.762;44.822;2022-12-10T02:23:10;5.60;;;1.50;;
75997;SDS011;64685;48.762;44.822;2022-12-10T02:25:48;8.98;;;2.75;;
75997;SDS011;64685;48.762;44.822;2022-12-10T02:30:59;3.05;;;1.33;;
75997;SDS011;64685;48.762;44.822;2022-12-10T02:33:25;3.83;;;1.35;;
75997;SDS011;64685;48.762;44.822;2022-12-10T02:35:53;3.50;;;1.85;;
75997;SDS011;64685;48.762;44.822;2022-12-10T02:38:20;1.83;;;0.82;;
75997;SDS011;64685;48.762;44.822;2022-12-10T02:40:50;4.90;;;1.92;;
75997;SDS011;64685;48.762;44.822;2022-12-10T02:43:19;5.25;;;1.70;;
75997;SDS011;64685;48.762;44.822;2022-12-10T02:50:41;4.72;;;2.30;;
75997;SDS011;64685;48.762;44.822;2022-12-10T02:53:06;4.68;;;1.90;;
75997;SDS011;64685;48.762;44.822;2022-12-10T02:55:55;5.82;;;1.77;;
75997;SDS011;64685;48.762;44.822;2022-12-10T02:58:26;4.93;;;1.90;;
75997;SDS011;64685;48.762;44.822;2022-12-10T03:00:57;4.53;;;1.90;;
75997;SDS011;64685;48.762;44.822;2022-12-10T03:03:38;4.40;;;1.75;;
75997;SDS011;64685;48.762;44.822;2022-12-10T03:11:22;2.50;;;0.85;;
75997;SDS011;64685;48.762;44.822;2022-12-10T03:16:14;7.60;;;1.60;;
75997;SDS011;64685;48.762;44.822;2022-12-10T03:18:41;3.08;;;1.42;;
75997;SDS011;64685;48.762;44.822;2022-12-10T03:21:08;5.10;;;2.10;;
75997;SDS011;64685;48.762;44.822;2022-12-10T03:23:36;4.45;;;1.60;;
75997;SDS011;64685;48.762;44.822;2022-12-10T03:26:03;4.13;;;1.92;;
75997;SDS011;64685;48.762;44.822;2022-12-10T03:28:30;6.88;;;1.77;;
75997;SDS011;64685;48.762;44.822;2022-12-10T03:30:57;5.15;;;1.98;;
75997;SDS011;64685;48.762;44.822;2022-12-10T03:33:23;4.47;;;1.35;;
75997;SDS011;64685;48.762;44.822;2022-12-10T03:35:48;4.05;;;1.88;;
75997;SDS011;64685;48.762;44.822;2022-12-10T03:38:15;6.82;;;1.90;;
75997;SDS011;64685;48.762;44.822;2022-12-10T03:40:41;5.22;;;1.90;;
75997;SDS011;64685;48.762;44.822;2022-12-10T03:43:06;6.50;;;2.30;;
75997;SDS011;64685;48.762;44.822;2022-12-10T03:45:32;3.67;;;1.42;;
75997;SDS011;64685;48.762;44.822;2022-12-10T03:47:58;4.13;;;1.85;;
75997;SDS011;64685;48.762;44.822;2022-12-10T03:50:24;3.78;;;1.38;;
75997;SDS011;64685;48.762;44.822;2022-12-10T03:52:49;4.20;;;1.73;;
75997;SDS011;64685;48.762;44.822;2022-12-10T03:55:15;3.85;;;1.45;;
75997;SDS011;64685;48.762;44.822;2022-12-10T03:57:41;6.47;;;1.70;;
75997;SDS011;64685;48.762;44.822;2022-12-10T04:00:07;4.47;;;1.58;;
75997;SDS011;64685;48.762;44.822;2022-12-10T04:02:42;6.13;;;2.05;;
75997;SDS011;64685;48.762;44.822;2022-12-10T04:05:08;6.05;;;1.77;;
75997;SDS011;64685;48.762;44.822;2022-12-10T04:07:33;5.28;;;1.85;;
75997;SDS011;64685;48.762;44.822;2022-12-10T04:09:59;3.05;;;1.33;;
75997;SDS011;64685;48.762;44.822;2022-12-10T04:12:25;9.73;;;2.00;;
75997;SDS011;64685;48.762;44.822;2022-12-10T04:14:51;6.35;;;2.50;;
75997;SDS011;64685;48.762;44.822;2022-12-10T04:17:35;6.47;;;1.67;;
75997;SDS011;64685;48.762;44.822;2022-12-10T04:20:01;5.78;;;1.73;;
75997;SDS011;64685;48.762;44.822;2022-12-10T04:22:27;3.28;;;1.63;;
75997;SDS011;64685;48.762;44.822;2022-12-10T04:25:28;8.85;;;2.17;;
75997;SDS011;64685;48.762;44.822;2022-12-10T04:28:12;7.03;;;1.77;;
75997;SDS011;64685;48.762;44.822;2022-12-10T04:30:38;4.05;;;1.42;;
75997;SDS011;64685;48.762;44.822;2022-12-10T04:33:03;3.55;;;1.70;;
75997;SDS011;64685;48.762;44.822;2022-12-10T04:35:29;4.50;;;1.65;;
75997;SDS011;64685;48.762;44.822;2022-12-10T04:37:55;6.75;;;2.00;;
75997;SDS011;64685;48.762;44.822;2022-12-10T04:40:21;4.05;;;1.42;;
75997;SDS011;64685;48.762;44.822;2022-12-10T04:42:46;5.15;;;2.13;;
75997;SDS011;64685;48.762;44.822;2022-12-10T04:45:12;3.70;;;1.60;;
75997;SDS011;64685;48.762;44.822;2022-12-10T04:47:38;5.32;;;2.05;;
75997;SDS011;64685;48.762;44.822;2022-12-10T04:50:04;6.95;;;2.20;;
75997;SDS011;64685;48.762;44.822;2022-12-10T04:52:30;4.70;;;1.63;;
75997;SDS011;64685;48.762;44.822;2022-12-10T04:54:55;7.68;;;2.08;;
75997;SDS011;64685;48.762;44.822;2022-12-10T04:57:21;7.35;;;2.28;;
75997;SDS011;64685;48.762;44.822;2022-12-10T04:59:47;12.75;;;2.17;;
75997;SDS011;64685;48.762;44.822;2022-12-10T05:02:13;2.20;;;1.17;;
75997;SDS011;64685;48.762;44.822;2022-12-10T05:04:38;4.57;;;1.45;;
75997;SDS011;64685;48.762;44.822;2022-12-10T05:07:04;4.43;;;1.75;;
75997;SDS011;64685;48.762;44.822;2022-12-10T05:09:30;2.38;;;1.35;;
75997;SDS011;64685;48.762;44.822;2022-12-10T05:11:56;5.13;;;1.45;;
75997;SDS011;64685;48.762;44.822;2022-12-10T05:14:22;6.72;;;2.13;;
75997;SDS011;64685;48.762;44.822;2022-12-10T05:16:49;5.88;;;1.98;;
75997;SDS011;64685;48.762;44.822;2022-12-10T05:19:15;3.97;;;1.52;;
75997;SDS011;64685;48.762;44.822;2022-12-10T05:21:41;10.77;;;2.17;;
75997;SDS011;64685;48.762;44.822;2022-12-10T05:24:25;5.13;;;1.85;;
75997;SDS011;64685;48.762;44.822;2022-12-10T05:26:51;9.02;;;2.08;;
75997;SDS011;64685;48.762;44.822;2022-12-10T05:29:16;3.95;;;1.77;;
75997;SDS011;64685;48.762;44.822;2022-12-10T05:31:42;5.82;;;2.22;;
75997;SDS011;64685;48.762;44.822;2022-12-10T05:34:09;8.27;;;2.17;;
75997;SDS011;64685;48.762;44.822;2022-12-10T05:39:01;7.47;;;2.20;;
75997;SDS011;64685;48.762;44.822;2022-12-10T05:41:33;9.05;;;2.65;;
75997;SDS011;64685;48.762;44.822;2022-12-10T05:43:59;6.45;;;2.20;;
75997;SDS011;64685;48.762;44.822;2022-12-10T05:46:27;5.30;;;2.25;;
75997;SDS011;64685;48.762;44.822;2022-12-10T05:51:20;5.78;;;2.47;;
75997;SDS011;64685;48.762;44.822;2022-12-10T05:53:46;6.68;;;1.98;;
75997;SDS011;64685;48.762;44.822;2022-12-10T05:56:16;3.60;;;1.88;;
75997;SDS011;64685;48.762;44.822;2022-12-10T05:58:46;3.17;;;1.48;;
75997;SDS011;64685;48.762;44.822;2022-12-10T06:01:12;4.10;;;1.70;;
75997;SDS011;64685;48.762;44.822;2022-12-10T06:03:39;7.05;;;2.33;;
75997;SDS011;64685;48.762;44.822;2022-12-10T06:06:05;6.60;;;2.97;;
75997;SDS011;64685;48.762;44.822;2022-12-10T06:08:32;7.40;;;2.67;;
75997;SDS011;64685;48.762;44.822;2022-12-10T06:11:04;7.90;;;3.42;;
75997;SDS011;64685;48.762;44.822;2022-12-10T06:13:30;5.88;;;2.95;;
75997;SDS011;64685;48.762;44.822;2022-12-10T06:15:56;6.97;;;2.67;;
75997;SDS011;64685;48.762;44.822;2022-12-10T06:18:22;6.60;;;2.35;;
75997;SDS011;64685;48.762;44.822;2022-12-10T06:20:48;7.82;;;2.90;;
75997;SDS011;64685;48.762;44.822;2022-12-10T06:23:13;7.70;;;2.75;;
75997;SDS011;64685;48.762;44.822;2022-12-10T06:25:39;4.90;;;2.80;;
75997;SDS011;64685;48.762;44.822;2022-12-10T06:28:06;6.72;;;2.47;;
75997;SDS011;64685;48.762;44.822;2022-12-10T06:30:31;8.32;;;3.20;;
75997;SDS011;64685;48.762;44.822;2022-12-10T06:32:57;10.05;;;2.80;;
75997;SDS011;64685;48.762;44.822;2022-12-10T06:35:23;6.43;;;2.33;;
75997;SDS011;64685;48.762;44.822;2022-12-10T06:37:49;7.95;;;2.70;;
75997;SDS011;64685;48.762;44.822;2022-12-10T06:40:16;6.78;;;3.10;;
75997;SDS011;64685;48.762;44.822;2022-12-10T06:42:42;2.10;;;1.15;;
75997;SDS011;64685;48.762;44.822;2022-12-10T06:45:08;7.85;;;1.92;;
75997;SDS011;64685;48.762;44.822;2022-12-10T06:47:33;9.30;;;2.15;;
75997;SDS011;64685;48.762;44.822;2022-12-10T06:49:59;6.97;;;1.92;;
75997;SDS011;64685;48.762;44.822;2022-12-10T06:52:25;5.07;;;2.65;;
75997;SDS011;64685;48.762;44.822;2022-12-10T06:54:51;5.82;;;1.80;;
75997;SDS011;64685;48.762;44.822;2022-12-10T06:57:16;5.43;;;2.03;;
75997;SDS011;64685;48.762;44.822;2022-12-10T06:59:42;7.03;;;2.47;;
75997;SDS011;64685;48.762;44.822;2022-12-10T07:02:09;4.85;;;1.55;;
75997;SDS011;64685;48.762;44.822;2022-12-10T07:04:35;9.73;;;1.67;;
75997;SDS011;64685;48.762;44.822;2022-12-10T07:07:01;7.63;;;2.55;;
75997;SDS011;64685;48.762;44.822;2022-12-10T07:09:27;7.22;;;1.73;;
75997;SDS011;64685;48.762;44.822;2022-12-10T07:11:52;7.63;;;2.25;;
75997;SDS011;64685;48.762;44.822;2022-12-10T07:14:18;5.90;;;2.22;;
75997;SDS011;64685;48.762;44.822;2022-12-10T07:16:44;6.40;;;1.88;;
75997;SDS011;64685;48.762;44.822;2022-12-10T07:19:11;7.75;;;3.05;;
75997;SDS011;64685;48.762;44.822;2022-12-10T07:21:37;8.27;;;2.80;;
75997;SDS011;64685;48.762;44.822;2022-12-10T07:24:05;7.38;;;2.40;;
75997;SDS011;64685;48.762;44.822;2022-12-10T07:26:33;6.90;;;1.98;;
75997;SDS011;64685;48.762;44.822;2022-12-10T07:29:00;6.85;;;1.67;;
75997;SDS011;64685;48.762;44.822;2022-12-10T07:31:26;6.10;;;2.08;;
75997;SDS011;64685;48.762;44.822;2022-12-10T07:33:53;4.35;;;1.38;;
75997;SDS011;64685;48.762;44.822;2022-12-10T07:36:19;4.60;;;1.70;;
75997;SDS011;64685;48.762;44.822;2022-12-10T07:38:46;7.07;;;2.35;;
75997;SDS011;64685;48.762;44.822;2022-12-10T07:41:12;6.07;;;2.55;;
75997;SDS011;64685;48.762;44.822;2022-12-10T07:43:39;5.65;;;2.42;;
75997;SDS011;64685;48.762;44.822;2022-12-10T07:48:30;5.68;;;2.25;;
75997;SDS011;64685;48.762;44.822;2022-12-10T07:50:56;6.85;;;2.35;;
75997;SDS011;64685;48.762;44.822;2022-12-10T07:53:23;12.30;;;3.05;;
75997;SDS011;64685;48.762;44.822;2022-12-10T07:55:48;7.95;;;3.20;;
75997;SDS011;64685;48.762;44.822;2022-12-10T07:58:14;5.05;;;2.05;;
75997;SDS011;64685;48.762;44.822;2022-12-10T08:00:40;12.20;;;5.03;;
75997;SDS011;64685;48.762;44.822;2022-12-10T08:03:06;12.20;;;4.32;;
75997;SDS011;64685;48.762;44.822;2022-12-10T08:05:32;13.40;;;4.50;;
75997;SDS011;64685;48.762;44.822;2022-12-10T08:07:58;14.40;;;3.60;;
75997;SDS011;64685;48.762;44.822;2022-12-10T08:10:24;10.02;;;3.85;;
75997;SDS011;64685;48.762;44.822;2022-12-10T08:12:50;6.47;;;3.40;;
75997;SDS011;64685;48.762;44.822;2022-12-10T08:15:15;7.35;;;2.75;;
75997;SDS011;64685;48.762;44.822;2022-12-10T08:17:41;6.78;;;2.42;;
75997;SDS011;64685;48.762;44.822;2022-12-10T08:20:07;9.48;;;3.45;;
75997;SDS011;64685;48.762;44.822;2022-12-10T08:22:33;10.88;;;4.10;;
75997;SDS011;64685;48.762;44.822;2022-12-10T08:24:59;9.60;;;3.75;;
75997;SDS011;64685;48.762;44.822;2022-12-10T08:27:25;5.40;;;1.75;;
75997;SDS011;64685;48.762;44.822;2022-12-10T08:29:51;9.82;;;3.78;;
75997;SDS011;64685;48.762;44.822;2022-12-10T08:32:16;12.75;;;4.00;;
75997;SDS011;64685;48.762;44.822;2022-12-10T08:34:42;7.07;;;2.90;;
75997;SDS011;64685;48.762;44.822;2022-12-10T08:37:08;11.82;;;3.97;;
75997;SDS011;64685;48.762;44.822;2022-12-10T08:39:34;9.60;;;3.58;;
75997;SDS011;64685;48.762;44.822;2022-12-10T08:41:59;11.38;;;3.90;;
75997;SDS011;64685;48.762;44.822;2022-12-10T08:44:25;12.10;;;4.05;;
75997;SDS011;64685;48.762;44.822;2022-12-10T08:46:52;9.15;;;3.90;;
75997;SDS011;64685;48.762;44.822;2022-12-10T08:49:18;5.85;;;1.65;;
75997;SDS011;64685;48.762;44.822;2022-12-10T08:51:44;10.70;;;4.43;;
75997;SDS011;64685;48.762;44.822;2022-12-10T08:54:10;8.13;;;1.77;;
75997;SDS011;64685;48.762;44.822;2022-12-10T08:56:36;6.88;;;2.70;;
75997;SDS011;64685;48.762;44.822;2022-12-10T08:59:01;11.57;;;3.33;;
75997;SDS011;64685;48.762;44.822;2022-12-10T09:01:27;9.63;;;3.25;;
75997;SDS011;64685;48.762;44.822;2022-12-10T09:03:53;7.20;;;2.80;;
75997;SDS011;64685;48.762;44.822;2022-12-10T09:06:20;12.05;;;2.72;;
75997;SDS011;64685;48.762;44.822;2022-12-10T09:08:46;9.15;;;3.22;;
75997;SDS011;64685;48.762;44.822;2022-12-10T09:13:48;9.25;;;3.55;;
75997;SDS011;64685;48.762;44.822;2022-12-10T09:16:15;10.70;;;3.97;;
75997;SDS011;64685;48.762;44.822;2022-12-10T09:18:41;6.93;;;3.00;;
75997;SDS011;64685;48.762;44.822;2022-12-10T09:21:08;7.10;;;2.38;;
75997;SDS011;64685;48.762;44.822;2022-12-10T09:23:34;7.35;;;3.10;;
75997;SDS011;64685;48.762;44.822;2022-12-10T09:26:00;7.50;;;3.03;;
75997;SDS011;64685;48.762;44.822;2022-12-10T09:28:26;8.43;;;2.80;;
75997;SDS011;64685;48.762;44.822;2022-12-10T09:30:56;10.43;;;3.85;;
75997;SDS011;64685;48.762;44.822;2022-12-10T09:33:22;7.60;;;3.58;;
75997;SDS011;64685;48.762;44.822;2022-12-10T09:35:47;10.55;;;3.55;;
75997;SDS011;64685;48.762;44.822;2022-12-10T09:38:13;6.00;;;3.00;;
75997;SDS011;64685;48.762;44.822;2022-12-10T09:40:41;9.15;;;3.05;;
75997;SDS011;64685;48.762;44.822;2022-12-10T09:46:04;10.10;;;3.10;;
75997;SDS011;64685;48.762;44.822;2022-12-10T09:48:40;7.65;;;2.42;;
75997;SDS011;64685;48.762;44.822;2022-12-10T09:51:23;11.82;;;3.58;;
75997;SDS011;64685;48.762;44.822;2022-12-10T09:53:49;7.20;;;2.80;;
75997;SDS011;64685;48.762;44.822;2022-12-10T09:56:33;7.03;;;2.80;;
75997;SDS011;64685;48.762;44.822;2022-12-10T09:59:01;7.10;;;3.08;;
75997;SDS011;64685;48.762;44.822;2022-12-10T10:01:28;7.72;;;3.28;;
75997;SDS011;64685;48.762;44.822;2022-12-10T10:03:55;8.63;;;3.60;;
75997;SDS011;64685;48.762;44.822;2022-12-10T10:06:21;12.32;;;2.92;;
75997;SDS011;64685;48.762;44.822;2022-12-10T10:08:51;9.23;;;4.60;;
75997;SDS011;64685;48.762;44.822;2022-12-10T10:11:20;8.18;;;3.00;;
75997;SDS011;64685;48.762;44.822;2022-12-10T10:13:49;8.20;;;3.33;;
75997;SDS011;64685;48.762;44.822;2022-12-10T10:16:22;7.10;;;3.03;;
75997;SDS011;64685;48.762;44.822;2022-12-10T10:19:12;8.85;;;3.83;;
75997;SDS011;64685;48.762;44.822;2022-12-10T10:21:44;9.43;;;4.05;;
75997;SDS011;64685;48.762;44.822;2022-12-10T10:24:15;11.93;;;5.15;;
75997;SDS011;64685;48.762;44.822;2022-12-10T10:26:42;12.63;;;4.93;;
75997;SDS011;64685;48.762;44.822;2022-12-10T10:29:08;10.38;;;4.07;;
75997;SDS011;64685;48.762;44.822;2022-12-10T10:31:36;8.30;;;3.30;;
75997;SDS011;64685;48.762;44.822;2022-12-10T10:34:04;7.82;;;3.30;;
75997;SDS011;64685;48.762;44.822;2022-12-10T10:36:34;10.68;;;3.92;;
75997;SDS011;64685;48.762;44.822;2022-12-10T10:39:33;7.93;;;3.53;;
75997;SDS011;64685;48.762;44.822;2022-12-10T10:41:53;9.52;;;4.10;;
75997;SDS011;64685;48.762;44.822;2022-12-10T10:44:20;11.50;;;3.22;;
75997;SDS011;64685;48.762;44.822;2022-12-10T10:46:47;9.18;;;4.55;;
75997;SDS011;64685;48.762;44.822;2022-12-10T10:49:26;11.15;;;4.18;;
75997;SDS011;64685;48.762;44.822;2022-12-10T10:51:53;11.68;;;4.38;;
75997;SDS011;64685;48.762;44.822;2022-12-10T10:54:34;12.15;;;5.47;;
75997;SDS011;64685;48.762;44.822;2022-12-10T10:59:35;10.25;;;3.80;;
75997;SDS011;64685;48.762;44.822;2022-12-10T11:04:37;8.48;;;4.35;;
75997;SDS011;64685;48.762;44.822;2022-12-10T11:07:05;9.48;;;4.43;;
75997;SDS011;64685;48.762;44.822;2022-12-10T11:09:39;7.35;;;3.40;;
75997;SDS011;64685;48.762;44.822;2022-12-10T11:12:06;12.63;;;5.18;;
75997;SDS011;64685;48.762;44.822;2022-12-10T11:14:33;14.55;;;5.75;;
75997;SDS011;64685;48.762;44.822;2022-12-10T11:19:35;18.13;;;5.07;;
75997;SDS011;64685;48.762;44.822;2022-12-10T11:22:21;11.75;;;4.20;;
75997;SDS011;64685;48.762;44.822;2022-12-10T11:24:48;10.32;;;4.05;;
75997;SDS011;64685;48.762;44.822;2022-12-10T11:38:11;8.70;;;4.20;;
75997;SDS011;64685;48.762;44.822;2022-12-10T11:48:34;8.30;;;3.63;;
75997;SDS011;64685;48.762;44.822;2022-12-10T11:51:06;11.10;;;4.82;;
75997;SDS011;64685;48.762;44.822;2022-12-10T11:53:38;15.30;;;5.47;;
75997;SDS011;64685;48.762;44.822;2022-12-10T12:01:12;11.75;;;4.05;;
75997;SDS011;64685;48.762;44.822;2022-12-10T12:10:01;10.88;;;4.43;;
75997;SDS011;64685;48.762;44.822;2022-12-10T12:14:27;12.90;;;5.68;;
75997;SDS011;64685;48.762;44.822;2022-12-10T12:16:59;9.32;;;4.47;;
75997;SDS011;64685;48.762;44.822;2022-12-10T12:19:47;12.35;;;5.15;;
75997;SDS011;64685;48.762;44.822;2022-12-10T12:22:55;14.02;;;4.63;;
75997;SDS011;64685;48.762;44.822;2022-12-10T12:25:02;8.55;;;3.25;;
75997;SDS011;64685;48.762;44.822;2022-12-10T12:27:33;12.02;;;5.30;;
75997;SDS011;64685;48.762;44.822;2022-12-10T12:30:34;12.88;;;7.07;;
75997;SDS011;64685;48.762;44.822;2022-12-10T12:40:43;12.02;;;5.85;;
75997;SDS011;64685;48.762;44.822;2022-12-10T12:43:15;13.38;;;6.22;;
75997;SDS011;64685;48.762;44.822;2022-12-10T12:45:45;11.05;;;4.72;;
75997;SDS011;64685;48.762;44.822;2022-12-10T12:48:17;16.02;;;6.32;;
75997;SDS011;64685;48.762;44.822;2022-12-10T12:50:49;11.35;;;5.10;;
75997;SDS011;64685;48.762;44.822;2022-12-10T12:53:18;12.90;;;5.22;;
75997;SDS011;64685;48.762;44.822;2022-12-10T12:55:46;8.18;;;3.33;;
75997;SDS011;64685;48.762;44.822;2022-12-10T12:58:22;10.18;;;4.30;;
75997;SDS011;64685;48.762;44.822;2022-12-10T13:00:50;12.38;;;4.93;;
75997;SDS011;64685;48.762;44.822;2022-12-10T13:05:43;11.93;;;5.95;;
75997;SDS011;64685;48.762;44.822;2022-12-10T13:13:24;14.60;;;4.00;;
75997;SDS011;64685;48.762;44.822;2022-12-10T13:15:50;13.93;;;5.80;;
75997;SDS011;64685;48.762;44.822;2022-12-10T13:28:26;8.60;;;3.78;;
75997;SDS011;64685;48.762;44.822;2022-12-10T13:36:12;11.88;;;4.70;;
75997;SDS011;64685;48.762;44.822;2022-12-10T13:38:41;11.07;;;4.38;;
75997;SDS011;64685;48.762;44.822;2022-12-10T13:41:07;15.77;;;5.00;;
75997;SDS011;64685;48.762;44.822;2022-12-10T13:43:55;4.97;;;2.42;;
75997;SDS011;64685;48.762;44.822;2022-12-10T13:49:16;12.30;;;4.13;;
75997;SDS011;64685;48.762;44.822;2022-12-10T13:51:52;11.98;;;5.70;;
75997;SDS011;64685;48.762;44.822;2022-12-10T13:59:36;12.23;;;4.90;;
75997;SDS011;64685;48.762;44.822;2022-12-10T14:02:31;14.20;;;6.85;;
75997;SDS011;64685;48.762;44.822;2022-12-10T14:07:16;18.23;;;4.97;;
75997;SDS011;64685;48.762;44.822;2022-12-10T14:09:52;13.57;;;5.28;;
75997;SDS011;64685;48.762;44.822;2022-12-10T14:12:29;12.88;;;5.60;;
75997;SDS011;64685;48.762;44.822;2022-12-10T14:14:58;12.73;;;4.70;;
75997;SDS011;64685;48.762;44.822;2022-12-10T14:17:30;16.10;;;5.25;;
75997;SDS011;64685;48.762;44.822;2022-12-10T14:19:56;15.98;;;7.05;;
75997;SDS011;64685;48.762;44.822;2022-12-10T14:22:35;19.48;;;5.95;;
75997;SDS011;64685;48.762;44.822;2022-12-10T14:25:04;17.23;;;6.03;;
75997;SDS011;64685;48.762;44.822;2022-12-10T14:27:31;12.73;;;5.97;;
75997;SDS011;64685;48.762;44.822;2022-12-10T14:30:02;11.60;;;4.70;;
75997;SDS011;64685;48.762;44.822;2022-12-10T14:32:30;16.58;;;7.40;;
75997;SDS011;64685;48.762;44.822;2022-12-10T14:34:58;14.02;;;6.72;;
75997;SDS011;64685;48.762;44.822;2022-12-10T14:37:27;16.63;;;7.53;;
75997;SDS011;64685;48.762;44.822;2022-12-10T14:39:54;10.90;;;5.00;;
75997;SDS011;64685;48.762;44.822;2022-12-10T14:42:20;14.80;;;6.13;;
75997;SDS011;64685;48.762;44.822;2022-12-10T14:44:56;16.23;;;6.00;;
75997;SDS011;64685;48.762;44.822;2022-12-10T14:47:22;16.48;;;6.18;;
75997;SDS011;64685;48.762;44.822;2022-12-10T14:49:49;8.32;;;3.55;;
75997;SDS011;64685;48.762;44.822;2022-12-10T14:52:17;13.45;;;5.72;;
75997;SDS011;64685;48.762;44.822;2022-12-10T14:54:43;13.63;;;5.35;;
75997;SDS011;64685;48.762;44.822;2022-12-10T14:57:44;18.83;;;7.88;;
75997;SDS011;64685;48.762;44.822;2022-12-10T15:00:09;15.88;;;7.57;;
75997;SDS011;64685;48.762;44.822;2022-12-10T15:02:36;16.73;;;4.95;;
75997;SDS011;64685;48.762;44.822;2022-12-10T15:05:03;11.85;;;4.80;;
75997;SDS011;64685;48.762;44.822;2022-12-10T15:07:34;17.75;;;6.65;;
75997;SDS011;64685;48.762;44.822;2022-12-10T15:10:04;16.67;;;5.85;;
75997;SDS011;64685;48.762;44.822;2022-12-10T15:12:33;16.10;;;4.75;;
75997;SDS011;64685;48.762;44.822;2022-12-10T15:15:06;14.25;;;6.40;;
75997;SDS011;64685;48.762;44.822;2022-12-10T15:17:37;9.80;;;4.57;;
75997;SDS011;64685;48.762;44.822;2022-12-10T15:20:09;13.88;;;6.68;;
75997;SDS011;64685;48.762;44.822;2022-12-10T15:22:36;15.10;;;5.72;;
75997;SDS011;64685;48.762;44.822;2022-12-10T15:25:45;11.55;;;5.68;;
75997;SDS011;64685;48.762;44.822;2022-12-10T15:27:58;15.98;;;6.95;;
75997;SDS011;64685;48.762;44.822;2022-12-10T15:30:32;14.85;;;5.40;;
75997;SDS011;64685;48.762;44.822;2022-12-10T15:32:58;15.18;;;5.20;;
75997;SDS011;64685;48.762;44.822;2022-12-10T15:35:24;16.08;;;6.10;;
75997;SDS011;64685;48.762;44.822;2022-12-10T15:37:50;15.43;;;5.43;;
75997;SDS011;64685;48.762;44.822;2022-12-10T15:40:26;11.55;;;5.55;;
75997;SDS011;64685;48.762;44.822;2022-12-10T15:42:55;10.02;;;4.05;;
75997;SDS011;64685;48.762;44.822;2022-12-10T15:45:22;13.17;;;5.67;;
75997;SDS011;64685;48.762;44.822;2022-12-10T15:47:51;11.38;;;5.28;;
75997;SDS011;64685;48.762;44.822;2022-12-10T15:50:17;12.82;;;4.47;;
75997;SDS011;64685;48.762;44.822;2022-12-10T15:52:42;11.75;;;4.80;;
75997;SDS011;64685;48.762;44.822;2022-12-10T15:55:10;15.25;;;6.03;;
75997;SDS011;64685;48.762;44.822;2022-12-10T15:57:37;14.85;;;5.13;;
75997;SDS011;64685;48.762;44.822;2022-12-10T16:00:15;10.23;;;3.35;;
75997;SDS011;64685;48.762;44.822;2022-12-10T16:03:03;13.85;;;6.88;;
75997;SDS011;64685;48.762;44.822;2022-12-10T16:05:32;14.00;;;4.97;;
75997;SDS011;64685;48.762;44.822;2022-12-10T16:08:00;15.77;;;5.70;;
75997;SDS011;64685;48.762;44.822;2022-12-10T16:10:27;14.90;;;6.00;;
75997;SDS011;64685;48.762;44.822;2022-12-10T16:13:00;13.80;;;4.32;;
75997;SDS011;64685;48.762;44.822;2022-12-10T16:15:27;13.35;;;5.35;;
75997;SDS011;64685;48.762;44.822;2022-12-10T16:17:55;13.80;;;5.20;;
75997;SDS011;64685;48.762;44.822;2022-12-10T16:22:47;7.10;;;3.17;;
75997;SDS011;64685;48.762;44.822;2022-12-10T16:25:13;12.68;;;4.28;;
75997;SDS011;64685;48.762;44.822;2022-12-10T16:27:39;12.07;;;4.10;;
75997;SDS011;64685;48.762;44.822;2022-12-10T16:30:12;11.15;;;3.70;;
75997;SDS011;64685;48.762;44.822;2022-12-10T16:32:38;10.88;;;3.67;;
75997;SDS011;64685;48.762;44.822;2022-12-10T16:35:04;10.55;;;4.30;;
75997;SDS011;64685;48.762;44.822;2022-12-10T16:37:30;10.90;;;3.88;;
75997;SDS011;64685;48.762;44.822;2022-12-10T16:39:55;9.88;;;3.55;;